sensor_id;sensor_type;location;lat;lon;timestamp;P1;durP1;ratioP1;P2;durP2;ratioP2
3004;SDS011;1512;51.486;6.610;2023-03-14T00:00:22;6.10;;;2.57;;
3004;SDS011;1512;51.486;6.610;2023-03-14T00:04:31;5.83;;;2.83;;
3004;SDS011;1512;51.486;6.610;2023-03-14T00:08:40;3.07;;;2.30;;
3004;SDS011;1512;51.486;6.610;2023-03-14T00:12:50;4.23;;;2.67;;
3004;SDS011;1512;51.486;6.610;2023-03-14T00:16:58;6.77;;;2.60;;
3004;SDS011;1512;51.486;6.610;2023-03-14T00:21:08;3.47;;;2.67;;
3004;SDS011;1512;51.486;6.610;2023-03-14T00:25:17;3.07;;;2.77;;
3004;SDS011;1512;51.486;6.610;2023-03-14T00:29:26;4.43;;;2.87;;
3004;SDS011;1512;51.486;6.610;2023-03-14T00:33:35;3.07;;;2.53;;
3004;SDS011;1512;51.486;6.610;2023-03-14T00:37:43;8.23;;;3.20;;
3004;SDS011;1512;51.486;6.610;2023-03-14T00:41:52;3.93;;;2.20;;
3004;SDS011;1512;51.486;6.610;2023-03-14T00:50:29;3.93;;;2.27;;
3004;SDS011;1512;51.486;6.610;2023-03-14T00:54:37;4.47;;;2.57;;
3004;SDS011;1512;51.486;6.610;2023-03-14T00:58:46;6.77;;;2.80;;
3004;SDS011;1512;51.486;6.610;2023-03-14T01:02:55;6.10;;;2.30;;
3004;SDS011;1512;51.486;6.610;2023-03-14T01:07:03;6.03;;;2.73;;
3004;SDS011;1512;51.486;6.610;2023-03-14T01:11:21;2.30;;;2.10;;
3004;SDS011;1512;51.486;6.610;2023-03-14T01:15:27;3.73;;;2.60;;
3004;SDS011;1512;51.486;6.610;2023-03-14T01:19:35;4.57;;;2.50;;
3004;SDS011;1512;51.486;6.610;2023-03-14T01:23:44;4.93;;;2.67;;
3004;SDS011;1512;51.486;6.610;2023-03-14T01:27:54;3.37;;;2.10;;
3004;SDS011;1512;51.486;6.610;2023-03-14T01:32:03;2.30;;;2.10;;
3004;SDS011;1512;51.486;6.610;2023-03-14T01:36:12;5.00;;;1.87;;
3004;SDS011;1512;51.486;6.610;2023-03-14T01:40:21;3.63;;;2.60;;
3004;SDS011;1512;51.486;6.610;2023-03-14T01:44:49;4.70;;;2.97;;
3004;SDS011;1512;51.486;6.610;2023-03-14T01:49:21;1.80;;;1.70;;
3004;SDS011;1512;51.486;6.610;2023-03-14T01:53:32;5.30;;;1.97;;
3004;SDS011;1512;51.486;6.610;2023-03-14T01:57:47;3.30;;;2.00;;
3004;SDS011;1512;51.486;6.610;2023-03-14T02:01:57;4.30;;;2.30;;
3004;SDS011;1512;51.486;6.610;2023-03-14T02:06:07;5.37;;;2.00;;
3004;SDS011;1512;51.486;6.610;2023-03-14T02:10:17;3.23;;;2.17;;
3004;SDS011;1512;51.486;6.610;2023-03-14T02:14:30;2.17;;;1.83;;
3004;SDS011;1512;51.486;6.610;2023-03-14T02:18:40;2.73;;;2.50;;
3004;SDS011;1512;51.486;6.610;2023-03-14T02:22:49;2.43;;;2.23;;
3004;SDS011;1512;51.486;6.610;2023-03-14T02:27:10;2.60;;;2.13;;
3004;SDS011;1512;51.486;6.610;2023-03-14T02:31:20;1.80;;;1.63;;
3004;SDS011;1512;51.486;6.610;2023-03-14T02:35:37;4.80;;;2.03;;
3004;SDS011;1512;51.486;6.610;2023-03-14T02:39:46;3.40;;;2.60;;
3004;SDS011;1512;51.486;6.610;2023-03-14T02:43:56;4.77;;;2.03;;
3004;SDS011;1512;51.486;6.610;2023-03-14T02:48:06;5.27;;;2.60;;
3004;SDS011;1512;51.486;6.610;2023-03-14T02:52:22;7.00;;;2.43;;
3004;SDS011;1512;51.486;6.610;2023-03-14T02:56:30;5.93;;;2.50;;
3004;SDS011;1512;51.486;6.610;2023-03-14T03:00:39;4.50;;;2.20;;
3004;SDS011;1512;51.486;6.610;2023-03-14T03:04:47;3.53;;;2.57;;
3004;SDS011;1512;51.486;6.610;2023-03-14T03:08:56;11.70;;;2.27;;
3004;SDS011;1512;51.486;6.610;2023-03-14T03:13:05;8.40;;;2.23;;
3004;SDS011;1512;51.486;6.610;2023-03-14T03:17:13;4.03;;;2.30;;
3004;SDS011;1512;51.486;6.610;2023-03-14T03:21:22;2.63;;;2.30;;
3004;SDS011;1512;51.486;6.610;2023-03-14T03:25:31;2.73;;;2.50;;
3004;SDS011;1512;51.486;6.610;2023-03-14T03:29:39;4.93;;;2.23;;
3004;SDS011;1512;51.486;6.610;2023-03-14T03:33:48;2.40;;;2.20;;
3004;SDS011;1512;51.486;6.610;2023-03-14T03:37:57;2.90;;;2.00;;
3004;SDS011;1512;51.486;6.610;2023-03-14T03:42:06;4.03;;;2.27;;
3004;SDS011;1512;51.486;6.610;2023-03-14T03:46:14;4.13;;;2.47;;
3004;SDS011;1512;51.486;6.610;2023-03-14T03:54:51;2.70;;;2.30;;
3004;SDS011;1512;51.486;6.610;2023-03-14T03:59:00;9.00;;;2.80;;
3004;SDS011;1512;51.486;6.610;2023-03-14T04:03:09;6.10;;;2.97;;
3004;SDS011;1512;51.486;6.610;2023-03-14T04:07:17;8.63;;;2.47;;
3004;SDS011;1512;51.486;6.610;2023-03-14T04:11:26;3.80;;;2.13;;
3004;SDS011;1512;51.486;6.610;2023-03-14T04:15:35;3.97;;;2.67;;
3004;SDS011;1512;51.486;6.610;2023-03-14T04:19:43;3.30;;;3.00;;
3004;SDS011;1512;51.486;6.610;2023-03-14T04:23:52;9.47;;;2.93;;
3004;SDS011;1512;51.486;6.610;2023-03-14T04:28:01;2.37;;;2.17;;
3004;SDS011;1512;51.486;6.610;2023-03-14T04:32:10;2.17;;;1.97;;
3004;SDS011;1512;51.486;6.610;2023-03-14T04:36:19;4.60;;;2.57;;
3004;SDS011;1512;51.486;6.610;2023-03-14T04:40:28;12.50;;;3.40;;
3004;SDS011;1512;51.486;6.610;2023-03-14T04:44:36;5.10;;;2.47;;
3004;SDS011;1512;51.486;6.610;2023-03-14T04:48:45;3.23;;;1.67;;
3004;SDS011;1512;51.486;6.610;2023-03-14T04:52:54;2.00;;;1.80;;
3004;SDS011;1512;51.486;6.610;2023-03-14T04:57:02;3.23;;;1.70;;
3004;SDS011;1512;51.486;6.610;2023-03-14T05:01:11;2.33;;;2.13;;
3004;SDS011;1512;51.486;6.610;2023-03-14T05:05:20;1.90;;;1.80;;
3004;SDS011;1512;51.486;6.610;2023-03-14T05:09:29;9.23;;;2.10;;
3004;SDS011;1512;51.486;6.610;2023-03-14T05:18:05;1.90;;;1.80;;
3004;SDS011;1512;51.486;6.610;2023-03-14T05:22:14;2.00;;;1.80;;
3004;SDS011;1512;51.486;6.610;2023-03-14T05:26:22;1.50;;;1.40;;
3004;SDS011;1512;51.486;6.610;2023-03-14T05:30:31;1.93;;;1.73;;
3004;SDS011;1512;51.486;6.610;2023-03-14T05:34:40;2.30;;;2.10;;
3004;SDS011;1512;51.486;6.610;2023-03-14T05:38:49;2.10;;;1.83;;
3004;SDS011;1512;51.486;6.610;2023-03-14T05:42:57;1.60;;;1.50;;
3004;SDS011;1512;51.486;6.610;2023-03-14T05:47:06;2.83;;;1.90;;
3004;SDS011;1512;51.486;6.610;2023-03-14T05:51:15;2.63;;;2.03;;
3004;SDS011;1512;51.486;6.610;2023-03-14T05:55:23;4.43;;;2.10;;
3004;SDS011;1512;51.486;6.610;2023-03-14T05:59:32;1.80;;;1.70;;
3004;SDS011;1512;51.486;6.610;2023-03-14T06:03:41;2.87;;;2.10;;
3004;SDS011;1512;51.486;6.610;2023-03-14T06:07:49;2.20;;;2.00;;
3004;SDS011;1512;51.486;6.610;2023-03-14T06:11:58;3.87;;;2.20;;
3004;SDS011;1512;51.486;6.610;2023-03-14T06:16:07;2.23;;;2.03;;
3004;SDS011;1512;51.486;6.610;2023-03-14T06:20:16;3.80;;;2.60;;
3004;SDS011;1512;51.486;6.610;2023-03-14T06:24:25;1.77;;;1.67;;
3004;SDS011;1512;51.486;6.610;2023-03-14T06:28:34;3.07;;;2.17;;
3004;SDS011;1512;51.486;6.610;2023-03-14T06:32:42;3.10;;;2.30;;
3004;SDS011;1512;51.486;6.610;2023-03-14T06:36:51;2.40;;;2.20;;
3004;SDS011;1512;51.486;6.610;2023-03-14T06:41:08;2.90;;;2.40;;
3004;SDS011;1512;51.486;6.610;2023-03-14T06:45:14;2.10;;;2.00;;
3004;SDS011;1512;51.486;6.610;2023-03-14T06:49:23;5.30;;;2.20;;
3004;SDS011;1512;51.486;6.610;2023-03-14T06:53:31;2.13;;;1.93;;
3004;SDS011;1512;51.486;6.610;2023-03-14T06:57:44;2.33;;;2.10;;
3004;SDS011;1512;51.486;6.610;2023-03-14T07:01:52;1.73;;;1.63;;
3004;SDS011;1512;51.486;6.610;2023-03-14T07:06:01;2.10;;;1.90;;
3004;SDS011;1512;51.486;6.610;2023-03-14T07:10:10;2.40;;;1.77;;
3004;SDS011;1512;51.486;6.610;2023-03-14T07:18:47;2.20;;;2.00;;
3004;SDS011;1512;51.486;6.610;2023-03-14T07:22:56;2.83;;;2.03;;
3004;SDS011;1512;51.486;6.610;2023-03-14T07:27:06;2.30;;;2.10;;
3004;SDS011;1512;51.486;6.610;2023-03-14T07:31:16;2.07;;;1.90;;
3004;SDS011;1512;51.486;6.610;2023-03-14T07:35:25;2.10;;;1.90;;
3004;SDS011;1512;51.486;6.610;2023-03-14T07:39:33;2.60;;;2.40;;
3004;SDS011;1512;51.486;6.610;2023-03-14T07:43:42;3.40;;;1.90;;
3004;SDS011;1512;51.486;6.610;2023-03-14T07:47:51;2.50;;;2.30;;
3004;SDS011;1512;51.486;6.610;2023-03-14T07:56:30;2.83;;;2.63;;
3004;SDS011;1512;51.486;6.610;2023-03-14T08:00:39;3.23;;;2.43;;
3004;SDS011;1512;51.486;6.610;2023-03-14T08:04:48;2.97;;;2.20;;
3004;SDS011;1512;51.486;6.610;2023-03-14T08:08:56;3.40;;;2.47;;
3004;SDS011;1512;51.486;6.610;2023-03-14T08:13:05;2.30;;;2.07;;
3004;SDS011;1512;51.486;6.610;2023-03-14T08:21:41;2.47;;;2.27;;
3004;SDS011;1512;51.486;6.610;2023-03-14T08:25:51;2.20;;;2.00;;
3004;SDS011;1512;51.486;6.610;2023-03-14T08:30:00;2.70;;;1.60;;
3004;SDS011;1512;51.486;6.610;2023-03-14T08:34:08;2.23;;;2.03;;
3004;SDS011;1512;51.486;6.610;2023-03-14T08:38:17;2.30;;;2.10;;
3004;SDS011;1512;51.486;6.610;2023-03-14T08:42:25;3.73;;;2.60;;
3004;SDS011;1512;51.486;6.610;2023-03-14T08:46:34;2.23;;;2.03;;
3004;SDS011;1512;51.486;6.610;2023-03-14T08:50:43;3.57;;;2.67;;
3004;SDS011;1512;51.486;6.610;2023-03-14T08:54:52;2.60;;;2.40;;
3004;SDS011;1512;51.486;6.610;2023-03-14T08:59:00;1.63;;;1.53;;
3004;SDS011;1512;51.486;6.610;2023-03-14T09:03:09;3.33;;;2.00;;
3004;SDS011;1512;51.486;6.610;2023-03-14T09:07:18;1.73;;;1.63;;
3004;SDS011;1512;51.486;6.610;2023-03-14T09:11:26;1.80;;;1.70;;
3004;SDS011;1512;51.486;6.610;2023-03-14T09:15:35;2.27;;;2.07;;
3004;SDS011;1512;51.486;6.610;2023-03-14T09:19:43;2.47;;;1.80;;
3004;SDS011;1512;51.486;6.610;2023-03-14T09:23:52;2.50;;;2.30;;
3004;SDS011;1512;51.486;6.610;2023-03-14T09:28:00;3.60;;;1.80;;
3004;SDS011;1512;51.486;6.610;2023-03-14T09:32:09;1.87;;;1.70;;
3004;SDS011;1512;51.486;6.610;2023-03-14T09:36:18;2.10;;;1.90;;
3004;SDS011;1512;51.486;6.610;2023-03-14T09:40:27;2.83;;;1.90;;
3004;SDS011;1512;51.486;6.610;2023-03-14T09:44:39;2.83;;;2.33;;
3004;SDS011;1512;51.486;6.610;2023-03-14T09:48:49;3.60;;;2.43;;
3004;SDS011;1512;51.486;6.610;2023-03-14T09:53:01;2.40;;;2.20;;
3004;SDS011;1512;51.486;6.610;2023-03-14T09:57:14;2.30;;;2.10;;
3004;SDS011;1512;51.486;6.610;2023-03-14T10:01:28;2.90;;;2.60;;
3004;SDS011;1512;51.486;6.610;2023-03-14T10:05:39;2.80;;;2.47;;
3004;SDS011;1512;51.486;6.610;2023-03-14T10:09:49;2.90;;;2.63;;
3004;SDS011;1512;51.486;6.610;2023-03-14T10:14:06;2.20;;;1.83;;
3004;SDS011;1512;51.486;6.610;2023-03-14T10:22:44;2.73;;;2.00;;
3004;SDS011;1512;51.486;6.610;2023-03-14T10:26:54;1.70;;;1.60;;
3004;SDS011;1512;51.486;6.610;2023-03-14T10:35:40;6.90;;;2.40;;
3004;SDS011;1512;51.486;6.610;2023-03-14T10:39:49;2.67;;;2.20;;
3004;SDS011;1512;51.486;6.610;2023-03-14T10:44:00;2.10;;;1.90;;
3004;SDS011;1512;51.486;6.610;2023-03-14T10:52:31;2.63;;;2.43;;
3004;SDS011;1512;51.486;6.610;2023-03-14T10:56:41;2.03;;;1.80;;
3004;SDS011;1512;51.486;6.610;2023-03-14T11:00:51;2.60;;;1.70;;
3004;SDS011;1512;51.486;6.610;2023-03-14T11:19:03;1.87;;;1.77;;
3004;SDS011;1512;51.486;6.610;2023-03-14T11:31:46;2.93;;;1.90;;
3004;SDS011;1512;51.486;6.610;2023-03-14T11:35:58;2.07;;;1.80;;
3004;SDS011;1512;51.486;6.610;2023-03-14T11:40:14;1.83;;;1.73;;
3004;SDS011;1512;51.486;6.610;2023-03-14T11:44:32;2.30;;;2.10;;
3004;SDS011;1512;51.486;6.610;2023-03-14T11:48:55;1.93;;;1.73;;
3004;SDS011;1512;51.486;6.610;2023-03-14T11:57:50;5.93;;;2.30;;
3004;SDS011;1512;51.486;6.610;2023-03-14T12:02:09;3.97;;;2.87;;
3004;SDS011;1512;51.486;6.610;2023-03-14T12:10:36;12.53;;;2.30;;
3004;SDS011;1512;51.486;6.610;2023-03-14T12:14:53;1.80;;;1.70;;
3004;SDS011;1512;51.486;6.610;2023-03-14T12:23:39;8.00;;;2.10;;
3004;SDS011;1512;51.486;6.610;2023-03-14T12:32:20;2.73;;;2.47;;
3004;SDS011;1512;51.486;6.610;2023-03-14T12:36:21;7.63;;;3.40;;
3004;SDS011;1512;51.486;6.610;2023-03-14T12:40:35;19.40;;;3.93;;
3004;SDS011;1512;51.486;6.610;2023-03-14T12:44:47;10.43;;;3.10;;
3004;SDS011;1512;51.486;6.610;2023-03-14T12:53:31;5.67;;;2.80;;
3004;SDS011;1512;51.486;6.610;2023-03-14T13:06:56;9.30;;;3.10;;
3004;SDS011;1512;51.486;6.610;2023-03-14T13:11:33;15.13;;;2.80;;
3004;SDS011;1512;51.486;6.610;2023-03-14T13:16:01;7.47;;;2.73;;
3004;SDS011;1512;51.486;6.610;2023-03-14T13:20:26;21.40;;;3.80;;
3004;SDS011;1512;51.486;6.610;2023-03-14T13:24:46;8.50;;;2.63;;
3004;SDS011;1512;51.486;6.610;2023-03-14T13:29:33;8.30;;;3.40;;
3004;SDS011;1512;51.486;6.610;2023-03-14T13:34:12;6.40;;;2.83;;
3004;SDS011;1512;51.486;6.610;2023-03-14T13:38:40;9.53;;;3.50;;
3004;SDS011;1512;51.486;6.610;2023-03-14T13:43:02;7.17;;;3.73;;
3004;SDS011;1512;51.486;6.610;2023-03-14T13:47:23;9.10;;;3.60;;
3004;SDS011;1512;51.486;6.610;2023-03-14T13:51:33;6.53;;;3.13;;
3004;SDS011;1512;51.486;6.610;2023-03-14T13:55:42;3.93;;;3.33;;
3004;SDS011;1512;51.486;6.610;2023-03-14T14:00:04;2.70;;;2.50;;
3004;SDS011;1512;51.486;6.610;2023-03-14T14:04:16;3.20;;;2.20;;
3004;SDS011;1512;51.486;6.610;2023-03-14T14:08:29;3.10;;;2.13;;
3004;SDS011;1512;51.486;6.610;2023-03-14T14:12:42;9.60;;;3.13;;
3004;SDS011;1512;51.486;6.610;2023-03-14T14:16:52;5.67;;;2.73;;
3004;SDS011;1512;51.486;6.610;2023-03-14T14:21:02;2.93;;;2.50;;
3004;SDS011;1512;51.486;6.610;2023-03-14T14:25:14;3.03;;;2.10;;
3004;SDS011;1512;51.486;6.610;2023-03-14T14:29:27;4.73;;;2.40;;
3004;SDS011;1512;51.486;6.610;2023-03-14T14:33:39;4.77;;;2.10;;
3004;SDS011;1512;51.486;6.610;2023-03-14T14:37:49;7.00;;;2.20;;
3004;SDS011;1512;51.486;6.610;2023-03-14T14:41:58;3.67;;;1.97;;
3004;SDS011;1512;51.486;6.610;2023-03-14T14:46:07;5.60;;;2.80;;
3004;SDS011;1512;51.486;6.610;2023-03-14T14:54:45;4.73;;;2.33;;
3004;SDS011;1512;51.486;6.610;2023-03-14T14:59:03;3.60;;;2.83;;
3004;SDS011;1512;51.486;6.610;2023-03-14T15:03:14;3.50;;;2.50;;
3004;SDS011;1512;51.486;6.610;2023-03-14T15:07:23;4.20;;;2.73;;
3004;SDS011;1512;51.486;6.610;2023-03-14T15:11:33;3.97;;;2.33;;
3004;SDS011;1512;51.486;6.610;2023-03-14T15:15:42;1.80;;;1.70;;
3004;SDS011;1512;51.486;6.610;2023-03-14T15:19:53;2.43;;;2.23;;
3004;SDS011;1512;51.486;6.610;2023-03-14T15:24:04;4.03;;;2.67;;
3004;SDS011;1512;51.486;6.610;2023-03-14T15:32:27;2.70;;;2.27;;
3004;SDS011;1512;51.486;6.610;2023-03-14T15:36:37;4.07;;;1.90;;
3004;SDS011;1512;51.486;6.610;2023-03-14T15:40:47;4.40;;;2.37;;
3004;SDS011;1512;51.486;6.610;2023-03-14T15:44:55;4.70;;;2.67;;
3004;SDS011;1512;51.486;6.610;2023-03-14T15:49:04;8.23;;;2.10;;
3004;SDS011;1512;51.486;6.610;2023-03-14T15:53:13;2.70;;;2.00;;
3004;SDS011;1512;51.486;6.610;2023-03-14T15:57:22;6.00;;;2.07;;
3004;SDS011;1512;51.486;6.610;2023-03-14T16:01:31;1.70;;;1.60;;
3004;SDS011;1512;51.486;6.610;2023-03-14T16:05:40;4.60;;;2.57;;
3004;SDS011;1512;51.486;6.610;2023-03-14T16:09:49;2.40;;;2.20;;
3004;SDS011;1512;51.486;6.610;2023-03-14T16:13:57;7.23;;;2.83;;
3004;SDS011;1512;51.486;6.610;2023-03-14T16:18:06;2.23;;;2.03;;
3004;SDS011;1512;51.486;6.610;2023-03-14T16:22:16;3.20;;;2.17;;
3004;SDS011;1512;51.486;6.610;2023-03-14T16:26:25;4.23;;;2.83;;
3004;SDS011;1512;51.486;6.610;2023-03-14T16:30:35;11.83;;;2.30;;
3004;SDS011;1512;51.486;6.610;2023-03-14T16:34:44;3.20;;;1.80;;
3004;SDS011;1512;51.486;6.610;2023-03-14T16:38:52;2.53;;;1.97;;
3004;SDS011;1512;51.486;6.610;2023-03-14T16:43:01;1.57;;;1.47;;
3004;SDS011;1512;51.486;6.610;2023-03-14T16:47:11;2.17;;;1.97;;
3004;SDS011;1512;51.486;6.610;2023-03-14T16:51:21;5.30;;;3.70;;
3004;SDS011;1512;51.486;6.610;2023-03-14T16:55:30;3.00;;;2.53;;
3004;SDS011;1512;51.486;6.610;2023-03-14T16:59:38;2.97;;;1.97;;
3004;SDS011;1512;51.486;6.610;2023-03-14T17:03:48;6.43;;;2.40;;
3004;SDS011;1512;51.486;6.610;2023-03-14T17:07:57;4.13;;;2.40;;
3004;SDS011;1512;51.486;6.610;2023-03-14T17:12:06;2.67;;;2.00;;
3004;SDS011;1512;51.486;6.610;2023-03-14T17:16:15;2.17;;;2.00;;
3004;SDS011;1512;51.486;6.610;2023-03-14T17:33:49;5.70;;;2.57;;
3004;SDS011;1512;51.486;6.610;2023-03-14T17:38:26;5.17;;;2.30;;
3004;SDS011;1512;51.486;6.610;2023-03-14T17:42:38;2.50;;;2.30;;
3004;SDS011;1512;51.486;6.610;2023-03-14T17:46:46;2.17;;;1.98;;
3004;SDS011;1512;51.486;6.610;2023-03-14T17:50:55;5.53;;;2.33;;
3004;SDS011;1512;51.486;6.610;2023-03-14T17:59:34;3.70;;;2.20;;
3004;SDS011;1512;51.486;6.610;2023-03-14T18:03:43;2.80;;;2.10;;
3004;SDS011;1512;51.486;6.610;2023-03-14T18:07:52;6.00;;;2.70;;
3004;SDS011;1512;51.486;6.610;2023-03-14T18:12:01;6.80;;;4.03;;
3004;SDS011;1512;51.486;6.610;2023-03-14T18:20:40;5.80;;;2.50;;
3004;SDS011;1512;51.486;6.610;2023-03-14T18:24:49;7.70;;;3.27;;
3004;SDS011;1512;51.486;6.610;2023-03-14T18:28:58;3.50;;;3.20;;
3004;SDS011;1512;51.486;6.610;2023-03-14T18:33:07;6.97;;;2.70;;
3004;SDS011;1512;51.486;6.610;2023-03-14T18:37:18;12.30;;;3.37;;
3004;SDS011;1512;51.486;6.610;2023-03-14T18:41:27;4.30;;;3.07;;
3004;SDS011;1512;51.486;6.610;2023-03-14T18:45:36;8.70;;;3.53;;
3004;SDS011;1512;51.486;6.610;2023-03-14T18:49:44;5.60;;;3.57;;
3004;SDS011;1512;51.486;6.610;2023-03-14T18:53:55;11.37;;;5.37;;
3004;SDS011;1512;51.486;6.610;2023-03-14T18:58:08;7.83;;;4.40;;
3004;SDS011;1512;51.486;6.610;2023-03-14T19:02:17;7.40;;;4.87;;
3004;SDS011;1512;51.486;6.610;2023-03-14T19:06:26;6.57;;;3.90;;
3004;SDS011;1512;51.486;6.610;2023-03-14T19:10:38;11.57;;;5.10;;
3004;SDS011;1512;51.486;6.610;2023-03-14T19:14:46;5.53;;;3.13;;
3004;SDS011;1512;51.486;6.610;2023-03-14T19:18:56;4.80;;;3.70;;
3004;SDS011;1512;51.486;6.610;2023-03-14T19:27:33;8.53;;;3.60;;
3004;SDS011;1512;51.486;6.610;2023-03-14T19:45:09;9.90;;;2.83;;
3004;SDS011;1512;51.486;6.610;2023-03-14T19:49:19;4.13;;;2.53;;
3004;SDS011;1512;51.486;6.610;2023-03-14T19:53:28;13.60;;;3.73;;
3004;SDS011;1512;51.486;6.610;2023-03-14T19:57:37;6.37;;;2.80;;
3004;SDS011;1512;51.486;6.610;2023-03-14T20:01:46;4.53;;;2.90;;
3004;SDS011;1512;51.486;6.610;2023-03-14T20:05:56;8.50;;;2.83;;
3004;SDS011;1512;51.486;6.610;2023-03-14T20:10:06;9.50;;;4.07;;
3004;SDS011;1512;51.486;6.610;2023-03-14T20:14:15;6.70;;;3.70;;
3004;SDS011;1512;51.486;6.610;2023-03-14T20:18:24;4.00;;;2.50;;
3004;SDS011;1512;51.486;6.610;2023-03-14T20:22:34;4.90;;;3.00;;
3004;SDS011;1512;51.486;6.610;2023-03-14T20:26:44;8.47;;;3.53;;
3004;SDS011;1512;51.486;6.610;2023-03-14T20:30:53;14.23;;;2.83;;
3004;SDS011;1512;51.486;6.610;2023-03-14T20:35:02;5.80;;;2.17;;
3004;SDS011;1512;51.486;6.610;2023-03-14T20:39:10;3.33;;;2.70;;
3004;SDS011;1512;51.486;6.610;2023-03-14T20:43:19;5.13;;;2.90;;
3004;SDS011;1512;51.486;6.610;2023-03-14T20:47:28;12.90;;;4.43;;
3004;SDS011;1512;51.486;6.610;2023-03-14T20:51:37;3.40;;;2.60;;
3004;SDS011;1512;51.486;6.610;2023-03-14T20:55:45;7.53;;;3.70;;
3004;SDS011;1512;51.486;6.610;2023-03-14T20:59:54;4.20;;;3.30;;
3004;SDS011;1512;51.486;6.610;2023-03-14T21:04:03;4.47;;;2.80;;
3004;SDS011;1512;51.486;6.610;2023-03-14T21:08:12;10.33;;;3.57;;
3004;SDS011;1512;51.486;6.610;2023-03-14T21:12:26;8.40;;;2.70;;
3004;SDS011;1512;51.486;6.610;2023-03-14T21:16:35;2.80;;;2.60;;
3004;SDS011;1512;51.486;6.610;2023-03-14T21:20:43;4.47;;;2.63;;
3004;SDS011;1512;51.486;6.610;2023-03-14T21:24:52;3.93;;;2.43;;
3004;SDS011;1512;51.486;6.610;2023-03-14T21:29:01;7.10;;;3.67;;
3004;SDS011;1512;51.486;6.610;2023-03-14T21:33:10;2.43;;;2.07;;
3004;SDS011;1512;51.486;6.610;2023-03-14T21:37:20;2.30;;;2.10;;
3004;SDS011;1512;51.486;6.610;2023-03-14T21:41:30;5.30;;;2.80;;
3004;SDS011;1512;51.486;6.610;2023-03-14T21:45:40;7.50;;;2.63;;
3004;SDS011;1512;51.486;6.610;2023-03-14T21:49:49;4.40;;;3.40;;
3004;SDS011;1512;51.486;6.610;2023-03-14T21:53:58;4.80;;;2.50;;
3004;SDS011;1512;51.486;6.610;2023-03-14T21:58:06;5.90;;;2.93;;
3004;SDS011;1512;51.486;6.610;2023-03-14T22:02:16;3.93;;;3.03;;
3004;SDS011;1512;51.486;6.610;2023-03-14T22:06:26;3.53;;;3.23;;
3004;SDS011;1512;51.486;6.610;2023-03-14T22:10:35;6.40;;;2.90;;
3004;SDS011;1512;51.486;6.610;2023-03-14T22:14:52;25.33;;;4.10;;
3004;SDS011;1512;51.486;6.610;2023-03-14T22:19:01;3.90;;;3.30;;
3004;SDS011;1512;51.486;6.610;2023-03-14T22:23:09;18.30;;;3.07;;
3004;SDS011;1512;51.486;6.610;2023-03-14T22:27:20;4.23;;;2.47;;
3004;SDS011;1512;51.486;6.610;2023-03-14T22:31:28;7.53;;;3.20;;
3004;SDS011;1512;51.486;6.610;2023-03-14T22:35:39;6.83;;;3.33;;
3004;SDS011;1512;51.486;6.610;2023-03-14T22:39:47;3.77;;;2.80;;
3004;SDS011;1512;51.486;6.610;2023-03-14T22:43:56;21.30;;;3.47;;
3004;SDS011;1512;51.486;6.610;2023-03-14T22:48:04;4.60;;;2.50;;
3004;SDS011;1512;51.486;6.610;2023-03-14T22:52:13;7.30;;;3.10;;
3004;SDS011;1512;51.486;6.610;2023-03-14T22:56:22;4.13;;;3.30;;
3004;SDS011;1512;51.486;6.610;2023-03-14T23:00:30;2.97;;;2.67;;
3004;SDS011;1512;51.486;6.610;2023-03-14T23:04:39;4.43;;;2.50;;
3004;SDS011;1512;51.486;6.610;2023-03-14T23:08:48;5.30;;;2.70;;
3004;SDS011;1512;51.486;6.610;2023-03-14T23:12:59;6.67;;;3.10;;
3004;SDS011;1512;51.486;6.610;2023-03-14T23:17:10;4.17;;;2.43;;
3004;SDS011;1512;51.486;6.610;2023-03-14T23:21:19;4.03;;;2.90;;
3004;SDS011;1512;51.486;6.610;2023-03-14T23:25:29;4.63;;;2.80;;
3004;SDS011;1512;51.486;6.610;2023-03-14T23:29:39;10.23;;;2.90;;
3004;SDS011;1512;51.486;6.610;2023-03-14T23:33:49;5.67;;;2.70;;
3004;SDS011;1512;51.486;6.610;2023-03-14T23:37:57;3.40;;;3.07;;
3004;SDS011;1512;51.486;6.610;2023-03-14T23:42:07;3.33;;;2.90;;
3004;SDS011;1512;51.486;6.610;2023-03-14T23:46:16;5.67;;;4.80;;
3004;SDS011;1512;51.486;6.610;2023-03-14T23:50:24;6.30;;;2.97;;
3004;SDS011;1512;51.486;6.610;2023-03-14T23:54:33;3.83;;;3.53;;
3004;SDS011;1512;51.486;6.610;2023-03-14T23:58:42;8.50;;;3.60;;
